Xirivella, Spain
Current Conditions -  °F | °C
As of 12:30 PM on Friday 24 Oct 2014 (Local Time) from LEVC Reporting Station
Clear Clear  
Wind Chill: 81°   Ceiling: Unl
Heat Index: 81°   Visibility: 6mi
Dew Point: 37°   Wind: 3mph
Humidity: 21%   Direction: 230°SW
Pressure: 30.06"   Gusts: NA
Location:  39.47°N, 0.43°W
Report Text: LEVC 241030Z 23003KT 190V270 CAVOK 27/03 Q1018 NOSIG
Loading
Personal Weather Stations






























Interactive Weather Map
Tropical Storm Tracking
New forecast layout! Learn more

10-Day Weather Forecast

Advertisements
Track Severe Weather on mobile